Latest Coastal Weather Observations for Carnarvon

IDW60701

Issued at 5:33 pm WST Thursday 23 February 2017 (issued every 10 minutes, with the page automatically refreshed every 10 minutes)

About coastal observations | Map of coastal stations | Coastal observations for WA | Marine services | Other Formats
Station Details ID: 006011 Name: CARNARVON AIRPORT Lat: -24.89 Lon: 113.67 Height: 4.0 m
Data from the previous 72 hours. | See also: Recent months at Carnarvon
Date/Time
WST
Temp
°C
Wind Pressure Rain since
9am
mm
Weather Cloud Vis
km
Sea
Height
m
Swell
Dir  Spd
kts
Gust
kts
hPa Trend Height
m
Period
s
Dir
23/05:30pm 29.5 SW 13 17 1012.5 - 0.0 - - 10 - - - -
23/05:00pm 30.5 SW 14 17 1012.4 - 0.0 - - 10 - - - -
23/04:30pm 30.7 SW 13 17 1012.4 - 0.0 - - 10 - - - -
23/04:00pm 31.3 SW 12 17 1012.4 - 0.0 - - 10 - - - -
23/03:30pm 31.2 SW 13 15 1012.5 - 0.0 - - 10 - - - -
23/03:00pm 31.5 SSW 12 15 1012.7 - 0.0 Fine Clear 29 - - - -
23/02:30pm 31.1 SSW 13 16 1012.9 - 0.0 - - 10 - - - -
23/02:00pm 31.4 SSW 14 17 1013.0 - 0.0 - - 10 - - - -
23/01:30pm 31.3 SW 13 15 1013.2 - 0.0 - - 10 - - - -
23/01:00pm 30.7 SSW 12 15 1013.3 - 0.0 - - 10 - - - -
23/12:30pm 30.9 SSW 14 17 1013.2 - 0.0 - - 10 - - - -
23/12:00pm 30.8 SSW 12 13 1013.5 - 0.0 - - 10 - - - -
23/11:30am 31.2 SSW 11 13 1013.7 - 0.0 - - 10 - - - -
23/11:00am 32.6 SSW 11 13 1013.9 - 0.0 - - 10 - - - -
23/10:30am 33.4 E 5 9 1014.3 - 0.0 - - 10 - - - -
23/10:00am 32.2 ESE 7 10 1014.5 - 0.0 - - 10 - - - -
23/09:30am 31.2 ESE 9 12 1014.5 - 0.0 - - 10 - - - -
23/09:00am 30.2 ESE 9 13 1014.7 - 0.0 Fine Clear 26 - - - -
23/08:30am 27.9 ESE 10 12 1014.6 - 0.0 - - 10 - - - -
23/08:00am 25.9 ESE 9 12 1014.5 - 0.0 - - 10 - - - -
23/07:30am 22.8 SE 7 9 1014.5 - 0.0 - - 10 - - - -
23/07:00am 20.5 SSE 5 7 1014.3 - 0.0 - - 10 - - - -
23/06:30am 19.2 SSE 7 8 1014.0 - 0.0 - - 10 - - - -
23/06:00am 19.6 S 5 6 1013.7 - 0.0 - - 10 - - - -
23/05:30am 20.2 S 7 8 1013.5 - 0.0 - - 10 - - - -
23/05:00am 20.7 S 8 9 1013.4 - 0.0 - - 10 - - - -
23/04:30am 20.6 S 6 7 1013.5 - 0.0 - - 10 - - - -
23/04:00am 21.3 SSE 6 7 1013.5 - 0.0 - - 10 - - - -
23/03:30am 22.2 S 7 8 1013.5 - 0.0 - - 10 - - - -
23/03:00am 22.6 S 8 10 1013.6 - 0.0 - - 10 - - - -
23/02:30am 22.7 S 8 10 1013.8 - 0.0 - - 10 - - - -
23/02:00am 22.8 S 9 11 1014.0 - 0.0 - - 10 - - - -
23/01:30am 23.1 S 10 13 1014.2 - 0.0 - - 10 - - - -
23/01:00am 23.3 S 11 14 1014.4 - 0.0 - - 10 - - - -
23/12:30am 23.4 S 11 15 1014.6 - 0.0 - - 10 - - - -
23/12:00am 23.7 S 11 15 1014.9 - 0.0 - - 10 - - - -
 
Date/Time
WST
Temp
°C
Wind Pressure Rain since
9am
mm
Weather Cloud Vis
km
Sea
Height
m
Swell
Dir  Spd
kts
Gust
kts
hPa Trend Height
m
Period
s
Dir
22/11:30pm 23.8 S 12 15 1015.2 - 0.0 - - 10 - - - -
22/11:00pm 24.0 S 12 15 1015.3 - 0.0 - - 10 - - - -
22/10:30pm 24.1 S 13 17 1015.4 - 0.0 - - 10 - - - -
22/10:00pm 24.5 S 14 18 1015.4 - 0.0 - - 10 - - - -
22/09:30pm 24.8 S 14 19 1015.2 - 0.0 - - 10 - - - -
22/09:00pm 24.9 S 15 19 1015.0 - 0.0 - - 10 - - - -
22/08:30pm 25.4 S 16 21 1014.6 - 0.0 - - 10 - - - -
22/08:00pm 25.6 SSW 14 20 1014.2 - 0.0 - - 10 - - - -
22/07:30pm 25.9 SSW 14 19 1014.0 - 0.0 - - 10 - - - -
22/07:00pm 26.2 SSW 15 19 1013.7 - 0.0 - - 10 - - - -
22/06:30pm 26.8 SSW 16 21 1013.4 - 0.0 - - 10 - - - -
22/06:00pm 27.4 SSW 16 20 1013.2 - 0.0 - - 10 - - - -
22/05:30pm 27.9 SSW 17 22 1013.0 - 0.0 - - 10 - - - -
22/05:00pm 27.9 SSW 17 22 1013.0 - 0.0 - - 10 - - - -
22/04:30pm 28.5 SSW 18 23 1013.1 - 0.0 - - 10 - - - -
22/04:00pm 28.2 SSW 18 23 1013.1 - 0.0 - - 10 - - - -
22/03:30pm 28.3 SSW 17 22 1013.3 - 0.0 - - 10 - - - -
22/03:00pm 28.3 SSW 19 23 1013.5 - 0.0 Fine Clear 29 - - - -
22/02:30pm 28.4 S 18 21 1013.8 - 0.0 - - 10 - - - -
22/02:00pm 28.0 S 18 22 1014.0 - 0.0 - - 10 - - - -
22/01:30pm 28.1 SSW 18 22 1014.2 - 0.0 - - 10 - - - -
22/01:00pm 27.7 SSW 18 22 1014.5 - 0.0 - - 10 - - - -
22/12:30pm 27.8 SSW 18 21 1014.8 - 0.0 - - 10 - - - -
22/12:00pm 26.8 SSW 17 22 1015.0 - 0.0 - - 10 - - - -
22/11:30am 28.6 S 12 16 1015.3 - 0.0 - - 10 - - - -
22/11:00am 28.1 SE 11 17 1015.6 - 0.0 - - 10 - - - -
22/10:30am 27.1 SE 11 16 1015.9 - 0.0 - - 10 - - - -
22/10:00am 26.1 SE 13 19 1016.0 - 0.0 - - 10 - - - -
22/09:30am 25.6 SE 13 17 1016.2 - 0.0 - - 10 - - - -
22/09:00am 24.2 SE 13 19 1016.3 - - Fine Clear 24 - - - -
22/08:30am 22.8 SE 15 18 1016.1 - - - - 10 - - - -
22/08:00am 21.5 SSE 14 19 1015.9 - - - - 10 - - - -
22/07:30am 20.5 SSE 15 19 1015.8 - - - - 10 - - - -
22/07:00am 19.8 SSE 13 18 1015.6 - - - - 10 - - - -
22/06:30am 19.4 SSE 13 17 1015.2 - - - - 10 - - - -
22/06:00am 19.5 SSE 13 18 1014.9 - - - - 10 - - - -
22/05:30am 19.9 SSE 16 21 1014.6 - - - - 10 - - - -
22/05:00am 20.2 SSE 16 20 1014.3 - - - - 10 - - - -
22/04:30am 20.5 SSE 16 20 1014.3 - - - - 10 - - - -
22/04:00am 20.8 SSE 15 19 1014.1 - - - - 10 - - - -
22/03:30am 21.2 SSE 13 18 1014.0 - - - - 10 - - - -
22/03:00am 21.4 SSE 14 19 1014.0 - - - - 10 - - - -
22/02:30am 21.7 SSE 15 19 1013.8 - - - - 10 - - - -
22/02:00am 22.4 SSE 17 21 1013.9 - - - - 10 - - - -
22/01:30am 22.6 SSE 15 19 1014.2 - - - - 10 - - - -
22/01:00am 22.4 S 15 21 1014.4 - - - - 10 - - - -
22/12:30am 22.7 SSE 16 21 1014.6 - - - - 10 - - - -
22/12:00am 23.1 SSE 15 19 1014.7 - - - - 10 - - - -
 
Date/Time
WST
Temp
°C
Wind Pressure Rain since
9am
mm
Weather Cloud Vis
km
Sea
Height
m
Swell
Dir  Spd
kts
Gust
kts
hPa Trend Height
m
Period
s
Dir
21/11:30pm 23.6 S 17 23 1014.8 - - - - 10 - - - -
21/11:00pm 23.5 S 19 24 1014.7 - - - - 10 - - - -
21/10:30pm 23.6 S 19 25 1014.9 - - - - 10 - - - -
21/10:00pm 23.8 S 19 25 1014.8 - - - - 10 - - - -
21/09:30pm 24.1 S 18 25 1014.5 - - - - 10 - - - -
21/09:00pm 24.4 S 19 23 1014.3 - - - - 10 - - - -
21/08:30pm 24.8 S 18 23 1014.1 - - - - 10 - - - -
21/08:00pm 25.2 S 19 25 1013.8 - - - - 10 - - - -
21/07:30pm 25.6 S 19 23 1013.5 - - - - 10 - - - -
21/07:00pm 26.1 S 17 23 1013.1 - - - - 10 - - - -
21/06:30pm 26.9 S 16 22 1012.7 - - - - 10 - - - -
21/06:00pm 27.9 S 19 24 1012.3 - - - - 10 - - - -
21/05:30pm 28.5 S 17 21 1012.1 - - - - 10 - - - -
21/05:10pm - - - - - - - - - - - - - -
21/05:00pm 28.8 S 18 23 1012.1 - 0.0 - - 10 - - - -

Other Formats:

Comma delimited format used in spreadsheet applications
http://www.bom.gov.au/fwo/IDW60701/IDW60701.94300.axf

JavaScript Object Notation format (JSON) in row-major order
http://www.bom.gov.au/fwo/IDW60701/IDW60701.94300.json